createdAt,value
2018-12-07T00:02:12.689Z,12.60
2018-12-07T00:04:40.166Z,12.50
2018-12-07T00:07:07.706Z,12.50
2018-12-07T00:09:35.145Z,12.50
2018-12-07T00:12:02.745Z,12.50
2018-12-07T00:14:30.202Z,12.50
2018-12-07T00:16:57.705Z,12.50
2018-12-07T00:19:25.206Z,12.50
2018-12-07T00:21:52.664Z,12.50
2018-12-07T00:24:20.118Z,12.50
2018-12-07T00:26:47.590Z,12.50
2018-12-07T00:29:15.188Z,12.50
2018-12-07T00:31:42.947Z,12.40
2018-12-07T00:34:10.466Z,12.40
2018-12-07T00:36:37.898Z,12.40
2018-12-07T00:39:06.906Z,12.40
2018-12-07T00:41:34.442Z,12.40
2018-12-07T00:44:02.004Z,12.40
2018-12-07T00:46:29.425Z,12.40
2018-12-07T00:48:56.951Z,12.40
2018-12-07T00:51:24.394Z,12.40
2018-12-07T00:53:51.853Z,12.50
2018-12-07T00:56:19.294Z,12.40
2018-12-07T00:58:46.769Z,12.50
2018-12-07T01:01:14.210Z,12.40
2018-12-07T01:03:41.723Z,12.40
2018-12-07T01:06:09.293Z,12.40
2018-12-07T01:08:36.753Z,12.40
2018-12-07T01:11:04.333Z,12.40
2018-12-07T01:13:31.800Z,12.40
2018-12-07T01:15:59.344Z,12.40
2018-12-07T01:18:26.808Z,12.40
2018-12-07T01:20:54.338Z,12.40
2018-12-07T01:23:21.923Z,12.30
2018-12-07T01:25:49.374Z,12.40
2018-12-07T01:28:16.825Z,12.30
2018-12-07T01:30:44.321Z,12.40
2018-12-07T01:33:11.855Z,12.30
2018-12-07T01:35:39.422Z,12.30
2018-12-07T01:38:06.905Z,12.30
2018-12-07T01:40:34.353Z,12.30
2018-12-07T01:43:01.831Z,12.30
2018-12-07T01:45:29.364Z,12.20
2018-12-07T01:47:56.947Z,12.20
2018-12-07T01:50:24.450Z,12.20
2018-12-07T01:52:52.016Z,12.20
2018-12-07T01:55:19.609Z,12.20
2018-12-07T01:57:47.053Z,12.30
2018-12-07T02:00:14.583Z,12.20
2018-12-07T02:02:42.034Z,12.20
2018-12-07T02:05:09.494Z,12.30
2018-12-07T02:07:37.055Z,12.30
2018-12-07T02:10:05.186Z,12.20
2018-12-07T02:12:32.654Z,12.20
2018-12-07T02:15:00.095Z,12.20
2018-12-07T02:17:27.574Z,12.20
2018-12-07T02:19:55.053Z,12.20
2018-12-07T02:22:22.717Z,12.20
2018-12-07T02:24:50.274Z,12.20
2018-12-07T02:27:17.846Z,12.20
2018-12-07T02:29:45.373Z,12.20
2018-12-07T02:32:12.953Z,12.20
2018-12-07T02:34:40.549Z,12.20
2018-12-07T02:37:08.174Z,12.20
2018-12-07T02:39:35.653Z,12.20
2018-12-07T02:42:03.337Z,12.20
2018-12-07T02:44:30.801Z,12.20
2018-12-07T02:46:58.234Z,12.20
2018-12-07T02:49:25.760Z,12.20
2018-12-07T02:51:53.292Z,12.20
2018-12-07T02:54:20.763Z,12.20
2018-12-07T02:56:48.206Z,12.20
2018-12-07T02:59:15.665Z,12.20
2018-12-07T03:01:43.110Z,12.20
2018-12-07T03:04:10.597Z,12.20
2018-12-07T03:06:38.162Z,12.20
2018-12-07T03:09:06.265Z,12.20
2018-12-07T03:11:33.721Z,12.20
2018-12-07T03:14:01.194Z,12.20
2018-12-07T03:16:28.672Z,12.20
2018-12-07T03:18:56.116Z,12.20
2018-12-07T03:21:23.586Z,12.20
2018-12-07T03:23:51.020Z,12.30
2018-12-07T03:26:18.547Z,12.30
2018-12-07T03:28:46.086Z,12.30
2018-12-07T03:31:13.531Z,12.20
2018-12-07T03:33:41.073Z,12.20
2018-12-07T03:36:08.538Z,12.20
2018-12-07T03:38:35.976Z,12.20
2018-12-07T03:41:03.709Z,12.20
2018-12-07T03:43:31.159Z,12.20
2018-12-07T03:45:58.690Z,12.20
2018-12-07T03:48:26.134Z,12.20
2018-12-07T03:50:53.602Z,12.20
2018-12-07T03:53:21.058Z,12.20
2018-12-07T03:55:48.523Z,12.20
2018-12-07T03:58:15.971Z,12.20
2018-12-07T04:00:43.445Z,12.20
2018-12-07T04:03:10.881Z,12.20
2018-12-07T04:05:38.628Z,12.20
2018-12-07T04:08:06.353Z,12.20
2018-12-07T04:10:33.816Z,12.20
2018-12-07T04:13:01.252Z,12.20
2018-12-07T04:15:29.192Z,12.20
2018-12-07T04:17:56.621Z,12.20
2018-12-07T04:20:24.195Z,12.20
2018-12-07T04:22:52.481Z,12.20
2018-12-07T04:25:20.015Z,12.20
2018-12-07T04:27:47.533Z,12.30
2018-12-07T04:30:21.769Z,12.30
2018-12-07T04:32:49.276Z,12.20
2018-12-07T04:35:16.786Z,12.20
2018-12-07T04:37:44.259Z,12.20
2018-12-07T04:40:11.817Z,12.20
2018-12-07T04:42:39.276Z,12.30
2018-12-07T04:45:06.849Z,12.30
2018-12-07T04:47:34.398Z,12.30
2018-12-07T04:50:01.829Z,12.30
2018-12-07T04:52:29.385Z,12.30
2018-12-07T04:54:56.874Z,12.30
2018-12-07T04:57:24.336Z,12.30
2018-12-07T04:59:51.775Z,12.20
2018-12-07T05:02:19.231Z,12.20
2018-12-07T05:04:46.766Z,12.30
2018-12-07T05:07:14.298Z,12.20
2018-12-07T05:09:41.737Z,12.30
2018-12-07T05:12:09.202Z,12.30
2018-12-07T05:14:36.763Z,12.30
2018-12-07T05:17:04.301Z,12.30
2018-12-07T05:19:31.928Z,12.30
2018-12-07T05:21:59.442Z,12.20
2018-12-07T05:24:26.868Z,12.20
2018-12-07T05:26:54.720Z,12.20
2018-12-07T05:29:22.210Z,12.30
2018-12-07T05:31:49.673Z,12.30
2018-12-07T05:34:17.104Z,12.30
2018-12-07T05:36:44.620Z,12.30
2018-12-07T05:39:12.138Z,12.30
2018-12-07T05:41:39.601Z,12.30
2018-12-07T05:44:07.047Z,12.20
2018-12-07T05:46:34.512Z,12.30
2018-12-07T05:49:01.957Z,12.30
2018-12-07T05:51:29.485Z,12.20
2018-12-07T05:53:56.919Z,12.30
2018-12-07T05:56:24.432Z,12.30
2018-12-07T05:58:52.011Z,12.30
2018-12-07T06:01:19.434Z,12.30
2018-12-07T06:03:46.909Z,12.30
2018-12-07T06:06:14.362Z,12.30
2018-12-07T06:08:41.842Z,12.30
2018-12-07T06:11:09.365Z,12.40
2018-12-07T06:13:36.828Z,12.30
2018-12-07T06:16:04.431Z,12.30
2018-12-07T06:18:31.904Z,12.30
2018-12-07T06:20:59.338Z,12.30
2018-12-07T06:23:27.041Z,12.30
2018-12-07T06:25:54.558Z,12.40
2018-12-07T06:28:22.021Z,12.30
2018-12-07T06:30:49.494Z,12.30
2018-12-07T06:33:16.962Z,12.30
2018-12-07T06:35:44.395Z,12.30
2018-12-07T06:38:11.867Z,12.30
2018-12-07T06:40:39.306Z,12.30
2018-12-07T06:43:06.767Z,12.40
2018-12-07T06:45:35.187Z,12.30
2018-12-07T06:48:02.945Z,12.30
2018-12-07T06:50:30.473Z,12.40
2018-12-07T06:52:57.983Z,12.30
2018-12-07T06:55:25.436Z,12.30
2018-12-07T06:57:52.957Z,12.30
2018-12-07T07:00:20.387Z,12.30
2018-12-07T07:02:47.868Z,12.30
2018-12-07T07:05:15.374Z,12.30
2018-12-07T07:07:43.038Z,12.30
2018-12-07T07:10:10.589Z,12.30
2018-12-07T07:12:38.042Z,12.30
2018-12-07T07:15:05.543Z,12.30
2018-12-07T07:17:33.005Z,12.30
2018-12-07T07:20:00.440Z,12.30
2018-12-07T07:22:27.888Z,12.20
2018-12-07T07:24:55.374Z,12.20
2018-12-07T07:27:22.818Z,12.20
2018-12-07T07:29:50.290Z,12.20
2018-12-07T07:32:17.730Z,12.20
2018-12-07T07:34:45.243Z,12.20
2018-12-07T07:37:12.670Z,12.20
2018-12-07T07:39:40.135Z,12.20
2018-12-07T07:42:07.570Z,12.20
2018-12-07T07:44:35.171Z,12.20
2018-12-07T07:47:02.730Z,12.20
2018-12-07T07:49:30.174Z,12.20
2018-12-07T07:51:57.621Z,12.20
2018-12-07T07:54:25.227Z,12.20
2018-12-07T07:56:52.845Z,12.20
2018-12-07T07:59:20.376Z,12.20
2018-12-07T08:01:47.901Z,12.10
2018-12-07T08:04:15.347Z,12.10
2018-12-07T08:06:42.893Z,12.10
2018-12-07T08:09:10.341Z,12.10
2018-12-07T08:11:37.805Z,12.10
2018-12-07T08:14:05.261Z,12.10
2018-12-07T08:16:32.822Z,12.20
2018-12-07T08:19:00.249Z,12.10
2018-12-07T08:21:27.706Z,12.10
2018-12-07T08:23:55.153Z,12.10
2018-12-07T08:26:22.623Z,12.10
2018-12-07T08:28:50.090Z,12.10
2018-12-07T08:31:17.633Z,12.10
2018-12-07T08:33:45.136Z,12.10
2018-12-07T08:36:12.691Z,12.00
2018-12-07T08:38:40.125Z,12.00
2018-12-07T08:41:07.574Z,12.00
2018-12-07T08:43:35.019Z,12.10
2018-12-07T08:46:02.489Z,12.10
2018-12-07T08:48:29.929Z,12.10
2018-12-07T08:50:57.413Z,12.10
2018-12-07T08:53:24.920Z,12.10
2018-12-07T08:55:52.399Z,12.10
2018-12-07T08:58:19.838Z,12.10
2018-12-07T09:00:47.376Z,12.10
2018-12-07T09:03:14.899Z,12.10
2018-12-07T09:05:42.362Z,12.10
2018-12-07T09:08:15.081Z,12.10
2018-12-07T09:10:39.385Z,12.10
2018-12-07T09:13:06.825Z,12.10
2018-12-07T09:15:34.281Z,12.10
2018-12-07T09:18:01.712Z,12.00
2018-12-07T09:20:29.193Z,12.00
2018-12-07T09:22:56.722Z,12.00
2018-12-07T09:25:24.182Z,12.00
2018-12-07T09:27:51.670Z,12.10
2018-12-07T09:30:19.209Z,12.10
2018-12-07T09:32:46.645Z,12.10
2018-12-07T09:35:14.128Z,12.10
2018-12-07T09:37:41.569Z,12.10
2018-12-07T09:40:09.125Z,12.10
2018-12-07T09:42:36.628Z,12.10
2018-12-07T09:45:05.885Z,12.10
2018-12-07T09:47:33.416Z,12.10
2018-12-07T09:50:00.975Z,12.10
2018-12-07T09:52:28.505Z,12.10
2018-12-07T09:54:55.946Z,12.00
2018-12-07T09:57:23.413Z,12.10
2018-12-07T09:59:50.850Z,12.10
2018-12-07T10:02:18.356Z,12.10
2018-12-07T10:04:45.781Z,12.10
2018-12-07T10:07:13.633Z,12.10
2018-12-07T10:09:41.066Z,12.10
2018-12-07T10:12:08.542Z,12.00
2018-12-07T10:14:36.001Z,12.00
2018-12-07T10:17:03.633Z,12.00
2018-12-07T10:19:31.070Z,12.00
2018-12-07T10:21:58.545Z,12.00
2018-12-07T10:24:25.987Z,12.00
2018-12-07T10:26:53.513Z,12.00
2018-12-07T10:29:20.991Z,12.00
2018-12-07T10:31:48.438Z,12.00
2018-12-07T10:34:15.890Z,12.00
2018-12-07T10:36:43.466Z,12.00
2018-12-07T10:39:10.904Z,12.00
2018-12-07T10:41:38.480Z,12.00
2018-12-07T10:44:05.893Z,12.00
2018-12-07T10:46:33.430Z,12.00
2018-12-07T10:49:00.977Z,12.00
2018-12-07T10:51:28.959Z,12.00
2018-12-07T10:53:56.713Z,12.00
2018-12-07T10:56:24.177Z,12.00
2018-12-07T10:58:51.673Z,12.00
2018-12-07T11:01:24.726Z,12.00
2018-12-07T11:03:57.894Z,12.00
2018-12-07T11:06:31.000Z,12.00
2018-12-07T11:09:03.135Z,12.00
2018-12-07T11:11:36.270Z,12.00
2018-12-07T11:14:09.455Z,12.10
2018-12-07T11:16:42.745Z,12.10
2018-12-07T11:19:15.787Z,12.10
2018-12-07T11:21:49.080Z,12.10
2018-12-07T11:24:22.068Z,12.10
2018-12-07T11:26:55.233Z,12.20
2018-12-07T11:32:49.302Z,12.20
2018-12-07T11:35:18.717Z,12.20
2018-12-07T11:37:46.206Z,12.20
2018-12-07T11:40:13.682Z,12.20
2018-12-07T11:42:41.197Z,12.20
2018-12-07T11:45:08.779Z,12.20
2018-12-07T11:47:36.238Z,12.20
2018-12-07T11:50:05.830Z,12.10
2018-12-07T11:52:33.371Z,12.10
2018-12-07T11:55:00.810Z,12.10
2018-12-07T11:57:28.277Z,12.10
2018-12-07T11:59:55.790Z,12.10
2018-12-07T12:02:26.380Z,12.20
2018-12-07T12:04:52.694Z,12.20
2018-12-07T12:07:20.173Z,12.20
2018-12-07T12:09:47.610Z,12.20
2018-12-07T12:12:15.096Z,12.20
2018-12-07T12:14:42.565Z,12.10
2018-12-07T12:17:10.002Z,12.10
2018-12-07T12:19:37.481Z,12.10
2018-12-07T12:22:04.945Z,12.20
2018-12-07T12:24:32.385Z,12.20
2018-12-07T12:26:59.827Z,12.20
2018-12-07T12:29:27.293Z,12.30
2018-12-07T12:31:54.781Z,12.40
2018-12-07T12:34:22.320Z,12.40
2018-12-07T12:36:49.854Z,12.40
2018-12-07T12:39:17.317Z,12.50
2018-12-07T12:41:46.892Z,12.50
2018-12-07T12:44:14.352Z,12.50
2018-12-07T12:46:41.964Z,12.50
2018-12-07T12:49:09.430Z,12.50
2018-12-07T12:51:36.975Z,12.50
2018-12-07T12:54:04.534Z,12.60
2018-12-07T12:56:31.949Z,12.60
2018-12-07T12:58:59.409Z,12.60
2018-12-07T13:01:26.933Z,12.60
2018-12-07T13:03:54.402Z,12.70
2018-12-07T13:06:22.130Z,12.70
2018-12-07T13:08:49.589Z,12.60
2018-12-07T13:11:17.026Z,12.70
2018-12-07T13:13:44.502Z,12.70
2018-12-07T13:16:11.983Z,12.70
2018-12-07T13:18:39.435Z,12.80
2018-12-07T13:21:06.965Z,12.80
2018-12-07T13:23:34.423Z,12.80
2018-12-07T13:26:01.859Z,12.80
2018-12-07T13:28:29.375Z,12.80
2018-12-07T13:30:59.181Z,12.80
2018-12-07T13:33:26.654Z,12.80
2018-12-07T13:35:54.094Z,12.80
2018-12-07T13:38:21.789Z,12.80
2018-12-07T13:40:49.342Z,12.90
2018-12-07T13:43:17.042Z,12.80
2018-12-07T13:45:45.096Z,12.80
2018-12-07T13:48:12.888Z,12.80
2018-12-07T13:50:40.813Z,12.80
2018-12-07T13:53:08.512Z,12.80
2018-12-07T13:55:36.801Z,12.80
2018-12-07T13:58:04.444Z,12.80
2018-12-07T14:00:32.270Z,12.80
2018-12-07T14:03:00.029Z,12.80
2018-12-07T14:05:32.271Z,12.80
2018-12-07T14:07:57.342Z,12.80
2018-12-07T14:10:25.024Z,12.80
2018-12-07T14:12:53.298Z,12.80
2018-12-07T14:15:20.858Z,12.80
2018-12-07T14:17:49.597Z,12.90
2018-12-07T14:20:17.226Z,12.80
2018-12-07T14:22:44.859Z,12.80
2018-12-07T14:25:12.644Z,12.70
2018-12-07T14:27:40.226Z,12.70
2018-12-07T14:30:07.909Z,12.70
2018-12-07T14:32:35.612Z,12.70
2018-12-07T14:35:04.488Z,12.60
2018-12-07T14:37:31.994Z,12.60
2018-12-07T14:39:59.625Z,12.60
2018-12-07T14:42:27.185Z,12.50
2018-12-07T14:44:54.714Z,12.50
2018-12-07T14:47:22.144Z,12.50
2018-12-07T14:49:49.913Z,12.50
2018-12-07T14:52:17.495Z,12.50
2018-12-07T14:54:45.172Z,12.50
2018-12-07T14:57:12.956Z,12.40
2018-12-07T14:59:40.591Z,12.30
2018-12-07T15:02:08.382Z,12.20
2018-12-07T15:04:36.062Z,12.30
2018-12-07T15:07:03.707Z,12.30
2018-12-07T15:09:31.523Z,12.30
2018-12-07T15:11:59.092Z,12.30
2018-12-07T15:14:26.819Z,12.30
2018-12-07T15:16:54.386Z,12.30
2018-12-07T15:19:21.916Z,12.30
2018-12-07T15:21:49.489Z,12.30
2018-12-07T15:24:17.133Z,12.20
2018-12-07T15:26:44.785Z,12.30
2018-12-07T15:29:12.518Z,12.20
2018-12-07T15:31:40.191Z,12.10
2018-12-07T15:34:07.772Z,12.10
2018-12-07T15:36:35.486Z,12.10
2018-12-07T15:39:04.817Z,12.10
2018-12-07T15:41:32.461Z,12.10
2018-12-07T15:44:00.055Z,12.10
2018-12-07T15:46:27.671Z,12.10
2018-12-07T15:48:55.711Z,12.10
2018-12-07T15:51:23.502Z,12.10
2018-12-07T15:53:51.322Z,12.10
2018-12-07T15:56:18.992Z,12.20
2018-12-07T15:58:46.465Z,12.20
2018-12-07T16:01:13.977Z,12.10
2018-12-07T16:03:41.467Z,12.10
2018-12-07T16:06:09.087Z,12.10
2018-12-07T16:08:36.692Z,12.10
2018-12-07T16:11:04.631Z,12.10
2018-12-07T16:13:32.613Z,12.00
2018-12-07T16:16:00.479Z,12.00
2018-12-07T16:18:28.050Z,12.00
2018-12-07T16:20:55.781Z,12.00
2018-12-07T16:23:24.403Z,12.00
2018-12-07T16:25:52.366Z,12.00
2018-12-07T16:28:20.025Z,12.00
2018-12-07T16:30:47.884Z,11.90
2018-12-07T16:33:15.434Z,11.90
2018-12-07T16:35:43.220Z,12.00
2018-12-07T16:38:10.951Z,11.90
2018-12-07T16:40:38.602Z,11.90
2018-12-07T16:43:06.176Z,11.80
2018-12-07T16:45:33.908Z,11.80
2018-12-07T16:48:01.662Z,11.80
2018-12-07T16:50:30.032Z,11.80
2018-12-07T16:52:57.628Z,11.80
2018-12-07T16:55:25.431Z,11.80
2018-12-07T16:57:53.126Z,11.70
2018-12-07T17:00:20.751Z,11.70
2018-12-07T17:02:48.324Z,11.60
2018-12-07T17:05:17.380Z,11.60
2018-12-07T17:07:44.887Z,11.60
2018-12-07T17:10:13.025Z,11.60
2018-12-07T17:12:40.975Z,11.60
2018-12-07T17:15:08.504Z,11.60
2018-12-07T17:17:36.069Z,11.50
2018-12-07T17:20:05.062Z,11.50
2018-12-07T17:22:32.628Z,11.50
2018-12-07T17:25:00.170Z,11.50
2018-12-07T17:27:27.897Z,11.50
2018-12-07T17:29:55.588Z,11.50
2018-12-07T17:32:23.210Z,11.50
2018-12-07T17:34:50.881Z,11.40
2018-12-07T17:37:18.511Z,11.40
2018-12-07T17:39:46.020Z,11.40
2018-12-07T17:42:14.113Z,11.30
2018-12-07T17:44:41.924Z,11.30
2018-12-07T17:47:09.466Z,11.30
2018-12-07T17:49:37.050Z,11.20
2018-12-07T17:52:04.534Z,11.30
2018-12-07T17:54:31.982Z,11.30
2018-12-07T17:56:59.588Z,11.30
2018-12-07T17:59:27.317Z,11.20
2018-12-07T18:01:54.953Z,11.20
2018-12-07T18:04:22.401Z,11.20
2018-12-07T18:06:50.165Z,11.20
2018-12-07T18:09:17.992Z,11.20
2018-12-07T18:11:45.825Z,11.20
2018-12-07T18:14:13.680Z,11.20
2018-12-07T18:16:41.494Z,11.20
2018-12-07T18:19:09.244Z,11.30
2018-12-07T18:21:36.815Z,11.30
2018-12-07T18:24:04.504Z,11.20
2018-12-07T18:26:32.182Z,11.20
2018-12-07T18:28:59.872Z,11.10
2018-12-07T18:31:27.682Z,11.00
2018-12-07T18:33:55.293Z,11.00
2018-12-07T18:36:22.962Z,10.80
2018-12-07T18:38:50.503Z,10.70
2018-12-07T18:41:18.279Z,10.70
2018-12-07T18:43:45.840Z,10.60
2018-12-07T18:46:13.426Z,10.50
2018-12-07T18:48:41.359Z,10.40
2018-12-07T18:51:09.144Z,10.40
2018-12-07T18:53:36.834Z,10.30
2018-12-07T18:56:04.608Z,10.20
2018-12-07T18:58:32.109Z,10.20
2018-12-07T19:00:59.647Z,10.10
2018-12-07T19:03:27.179Z,10.10
2018-12-07T19:05:54.704Z,10.10
2018-12-07T19:08:22.436Z,10.00
2018-12-07T19:10:50.272Z,9.80
2018-12-07T19:13:17.972Z,9.70
2018-12-07T19:15:45.635Z,9.70
2018-12-07T19:18:13.337Z,9.70
2018-12-07T19:20:41.208Z,9.60
2018-12-07T19:23:09.114Z,9.60
2018-12-07T19:25:36.981Z,9.70
2018-12-07T19:28:04.932Z,9.70
2018-12-07T19:30:32.581Z,9.70
2018-12-07T19:33:00.343Z,9.70
2018-12-07T19:35:27.924Z,9.70
2018-12-07T19:37:55.713Z,9.70
2018-12-07T19:40:23.245Z,9.70
2018-12-07T19:42:50.868Z,9.70
2018-12-07T19:45:18.426Z,9.70
2018-12-07T19:47:46.381Z,9.70
2018-12-07T19:50:14.216Z,9.50
2018-12-07T19:52:41.910Z,9.50
2018-12-07T19:55:10.810Z,9.40
2018-12-07T19:57:38.389Z,9.40
2018-12-07T20:00:08.783Z,9.30
2018-12-07T20:02:36.445Z,9.30
2018-12-07T20:05:05.595Z,9.30
2018-12-07T20:07:33.121Z,9.30
2018-12-07T20:10:00.685Z,9.30
2018-12-07T20:12:28.589Z,9.30
2018-12-07T20:14:56.215Z,9.30
2018-12-07T20:17:24.188Z,9.30
2018-12-07T20:19:51.702Z,9.30
2018-12-07T20:22:19.303Z,9.30
2018-12-07T20:24:47.072Z,9.20
2018-12-07T20:27:14.785Z,9.10
2018-12-07T20:29:42.497Z,9.10
2018-12-07T20:32:10.187Z,9.10
2018-12-07T20:34:37.868Z,9.10
2018-12-07T20:37:05.680Z,9.10
2018-12-07T20:39:33.374Z,9.00
2018-12-07T20:42:00.995Z,9.00
2018-12-07T20:44:28.536Z,9.00
2018-12-07T20:46:56.358Z,9.00
2018-12-07T20:49:24.043Z,9.00
2018-12-07T20:51:51.506Z,8.90
2018-12-07T20:54:19.612Z,9.00
2018-12-07T20:56:47.199Z,9.00
2018-12-07T20:59:15.302Z,9.10
2018-12-07T21:01:51.006Z,9.10
2018-12-07T21:04:31.361Z,9.20
2018-12-07T21:10:52.197Z,9.20
2018-12-07T21:13:41.866Z,9.10
2018-12-07T21:16:43.687Z,9.10
2018-12-07T21:19:11.382Z,9.00
2018-12-07T21:21:39.320Z,9.10
2018-12-07T21:24:06.888Z,9.10
2018-12-07T21:26:34.480Z,9.10
2018-12-07T21:29:02.284Z,9.10
2018-12-07T21:31:30.090Z,9.10
2018-12-07T21:34:03.710Z,9.00
2018-12-07T21:36:36.427Z,9.00
2018-12-07T21:39:11.940Z,8.90
2018-12-07T21:41:39.432Z,8.90
2018-12-07T21:44:07.004Z,8.90
2018-12-07T21:46:34.539Z,8.80
2018-12-07T21:49:02.084Z,8.80
2018-12-07T21:51:36.679Z,8.80
2018-12-07T21:54:04.306Z,8.80
2018-12-07T21:56:31.872Z,8.70
2018-12-07T21:58:59.479Z,8.80
2018-12-07T22:01:27.281Z,8.70
2018-12-07T22:03:55.025Z,8.70
2018-12-07T22:06:22.758Z,8.70
2018-12-07T22:08:50.645Z,8.70
2018-12-07T22:11:18.604Z,8.70
2018-12-07T22:13:46.417Z,8.70
2018-12-07T22:16:14.015Z,8.70
2018-12-07T22:18:41.479Z,8.60
2018-12-07T22:21:09.223Z,8.60
2018-12-07T22:23:36.926Z,8.70
2018-12-07T22:26:04.363Z,8.70
2018-12-07T22:28:32.057Z,8.70
2018-12-07T22:30:59.669Z,8.60
2018-12-07T22:33:27.131Z,8.60
2018-12-07T22:35:54.871Z,8.60
2018-12-07T22:38:22.929Z,8.60
2018-12-07T22:40:50.627Z,8.50
2018-12-07T22:43:18.547Z,8.50
2018-12-07T22:45:46.422Z,8.40
2018-12-07T22:48:13.905Z,8.40
2018-12-07T22:50:41.442Z,8.40
2018-12-07T22:53:08.877Z,8.30
2018-12-07T22:55:36.371Z,8.40
2018-12-07T22:58:03.811Z,8.40
2018-12-07T23:00:31.538Z,8.30
2018-12-07T23:02:59.008Z,8.30
2018-12-07T23:05:26.495Z,8.30
2018-12-07T23:07:53.920Z,8.30
2018-12-07T23:10:21.389Z,8.20
2018-12-07T23:12:48.847Z,8.30
2018-12-07T23:15:16.290Z,8.30
2018-12-07T23:17:43.725Z,8.20
2018-12-07T23:20:11.181Z,8.20
2018-12-07T23:22:38.671Z,8.20
2018-12-07T23:25:06.270Z,8.30
2018-12-07T23:27:33.730Z,8.30
2018-12-07T23:30:01.406Z,8.30
2018-12-07T23:32:28.851Z,8.30
2018-12-07T23:34:56.360Z,8.20
2018-12-07T23:37:23.845Z,8.20
2018-12-07T23:39:51.456Z,8.20
2018-12-07T23:42:19.049Z,8.30
2018-12-07T23:44:46.711Z,8.20
2018-12-07T23:47:14.205Z,8.20
2018-12-07T23:49:41.655Z,8.20
2018-12-07T23:52:09.169Z,8.20
2018-12-07T23:54:36.586Z,8.20
2018-12-07T23:57:04.021Z,8.20
2018-12-07T23:59:31.493Z,8.20
